Time;durP1;ratioP1;P1;durP2;ratioP2;P2;SDS_P1;SDS_P2;PMS_P1;PMS_P2;Temp;Humidity;BMP_temperature;BMP_pressure;BME280_temperature;BME280_humidity;BME280_pressure;Samples;Min_cycle;Max_cycle;Signal;HPM_P1;HPM_P2
2022/11/18 00:00:48;;;;;;;26.70;22.38;;;7.40;99.90;;;;;;4844501;29;88070;-31
2022/11/18 00:03:15;;;;;;;18.27;15.88;;;7.40;99.90;;;;;;4845566;29;90198;-34
2022/11/18 00:05:41;;;;;;;27.63;24.67;;;7.40;99.90;;;;;;4844697;29;88379;-35
2022/11/18 00:08:07;;;;;;;25.92;23.20;;;7.40;99.90;;;;;;4846023;29;89651;-32
2022/11/18 00:10:32;;;;;;;28.10;23.10;;;7.40;99.90;;;;;;4844938;29;88912;-34
2022/11/18 00:15:42;;;;;;;29.80;22.60;;;7.40;99.90;;;;;;4844918;29;90177;-33
2022/11/18 00:18:08;;;;;;;25.63;20.25;;;7.30;99.90;;;;;;4845553;29;89563;-33
2022/11/18 00:20:34;;;;;;;26.02;19.33;;;7.50;99.90;;;;;;4844676;29;90761;-32
2022/11/18 00:23:00;;;;;;;31.70;25.05;;;7.50;99.90;;;;;;4844674;29;90192;-31
2022/11/18 00:25:26;;;;;;;31.77;26.63;;;7.40;99.90;;;;;;4845176;29;89488;-33
2022/11/18 00:27:53;;;;;;;26.10;20.15;;;7.40;99.90;;;;;;4844660;29;89417;-31
2022/11/18 00:30:19;;;;;;;38.88;25.77;;;7.60;99.90;;;;;;4844996;29;88902;-32
2022/11/18 00:32:44;;;;;;;37.45;27.73;;;7.40;99.90;;;;;;4844140;29;90384;-33
2022/11/18 00:35:10;;;;;;;32.75;27.63;;;7.40;99.90;;;;;;4844347;29;89877;-34
2022/11/18 00:37:35;;;;;;;26.42;23.17;;;7.30;99.90;;;;;;4845008;29;89654;-33
2022/11/18 00:40:01;;;;;;;29.70;24.80;;;7.30;99.90;;;;;;4845434;29;89439;-33
2022/11/18 00:45:11;;;;;;;27.60;19.85;;;7.50;99.90;;;;;;4844173;29;91718;-32
2022/11/18 00:47:36;;;;;;;27.75;24.55;;;7.50;99.90;;;;;;4844281;29;90621;-35
2022/11/18 00:50:02;;;;;;;22.02;19.75;;;7.50;99.90;;;;;;4845332;29;88247;-34
2022/11/18 00:52:28;;;;;;;30.48;21.42;;;7.40;99.90;;;;;;4844444;29;90278;-34
2022/11/18 00:54:53;;;;;;;28.75;23.85;;;7.40;99.90;;;;;;4844785;29;89123;-31
2022/11/18 00:57:19;;;;;;;33.15;27.23;;;7.40;99.90;;;;;;4844549;29;90964;-32
2022/11/18 00:59:45;;;;;;;33.38;28.13;;;7.40;99.90;;;;;;4844651;29;88505;-34
2022/11/18 01:02:10;;;;;;;31.70;27.80;;;7.30;99.90;;;;;;4845042;29;90923;-33
2022/11/18 01:04:36;;;;;;;35.63;27.80;;;7.40;99.90;;;;;;4843732;29;89732;-32
2022/11/18 01:07:01;;;;;;;31.60;27.77;;;7.40;99.90;;;;;;4844819;29;89667;-34
2022/11/18 01:09:27;;;;;;;31.85;21.75;;;7.50;99.90;;;;;;4844112;29;90560;-31
2022/11/18 01:14:37;;;;;;;31.08;27.45;;;7.60;99.90;;;;;;4844134;29;90699;-34
2022/11/18 01:17:02;;;;;;;31.33;25.88;;;7.50;99.90;;;;;;4844355;29;89723;-33
2022/11/18 01:19:28;;;;;;;24.27;19.20;;;7.50;99.90;;;;;;4844537;29;89396;-33
2022/11/18 01:21:55;;;;;;;35.53;25.77;;;7.50;99.90;;;;;;4844736;29;90744;-32
2022/11/18 01:24:21;;;;;;;37.70;29.15;;;7.50;99.90;;;;;;4844200;29;90166;-32
2022/11/18 01:26:47;;;;;;;30.88;26.98;;;7.30;99.90;;;;;;4843871;29;89535;-32
2022/11/18 01:29:13;;;;;;;35.97;28.58;;;7.40;99.90;;;;;;4844053;29;89691;-34
2022/11/18 01:31:38;;;;;;;26.38;22.38;;;7.30;99.90;;;;;;4844716;29;90348;-31
2022/11/18 01:34:04;;;;;;;31.40;26.00;;;7.40;99.90;;;;;;4843846;29;89526;-31
2022/11/18 01:36:30;;;;;;;40.08;28.35;;;7.40;99.90;;;;;;4843716;29;91332;-33
2022/11/18 01:38:56;;;;;;;27.20;23.23;;;7.40;99.90;;;;;;4844033;29;89206;-33
2022/11/18 01:41:24;;;;;;;31.40;26.38;;;7.50;99.90;;;;;;4843741;29;90446;-33
2022/11/18 01:43:50;;;;;;;;;;;7.40;99.90;;;;;;4844323;29;90817;-33
2022/11/18 01:46:15;;;;;;;31.25;25.33;;;7.30;99.90;;;;;;4845436;29;89753;-31
2022/11/18 01:48:43;;;;;;;31.92;26.30;;;7.30;99.90;;;;;;4844156;29;89180;-35
2022/11/18 01:51:15;;;;;;;31.13;25.98;;;7.20;99.90;;;;;;4844348;29;89971;-34
2022/11/18 01:53:46;;;;;;;31.23;22.60;;;7.30;99.90;;;;;;4843688;29;89792;-30
2022/11/18 01:56:17;;;;;;;28.05;23.85;;;7.20;99.90;;;;;;4844350;29;89418;-32
2022/11/18 01:58:54;;;;;;;31.98;25.92;;;7.20;99.90;;;;;;4843088;29;89342;-30
2022/11/18 02:01:20;;;;;;;34.95;26.67;;;7.30;99.90;;;;;;4843227;29;89971;-32
2022/11/18 02:03:48;;;;;;;30.92;26.70;;;7.40;99.90;;;;;;4843554;29;89982;-32
2022/11/18 02:06:14;;;;;;;33.95;27.95;;;7.30;99.90;;;;;;4844086;29;89639;-33
2022/11/18 02:08:40;;;;;;;30.25;25.58;;;7.30;99.90;;;;;;4843761;29;89825;-32
2022/11/18 02:11:49;;;;;;;33.38;27.15;;;7.30;99.90;;;;;;4843743;29;90673;-33
2022/11/18 02:14:02;;;;;;;32.67;23.50;;;7.30;99.90;;;;;;4843313;29;90741;-32
2022/11/18 02:16:41;;;;;;;33.53;26.88;;;7.40;99.90;;;;;;4843281;29;89594;-30
2022/11/18 02:19:39;;;;;;;28.52;22.48;;;7.30;99.90;;;;;;4843298;29;88934;-32
2022/11/18 02:22:27;;;;;;;27.05;22.15;;;7.30;99.90;;;;;;4843272;29;90367;-34
2022/11/18 02:25:21;;;;;;;29.40;24.70;;;7.30;99.90;;;;;;4842569;29;90571;-31
2022/11/18 02:28:19;;;;;;;22.67;19.17;;;7.40;99.90;;;;;;4843376;29;90554;-32
2022/11/18 02:31:08;;;;;;;;;;;7.40;99.90;;;;;;4844323;29;90149;-32
2022/11/18 02:33:50;;;;;;;22.45;18.17;;;7.30;99.90;;;;;;4843363;29;90469;-35
2022/11/18 02:36:26;;;;;;;39.38;27.77;;;7.30;99.90;;;;;;4842910;29;89442;-33
2022/11/18 02:39:00;;;;;;;32.20;26.10;;;7.40;99.90;;;;;;4843366;29;89229;-33
2022/11/18 02:41:30;;;;;;;36.38;26.75;;;7.40;99.90;;;;;;4843229;29;89035;-30
2022/11/18 02:44:00;;;;;;;27.88;21.17;;;7.30;99.90;;;;;;4843835;29;90208;-32
2022/11/18 02:46:32;;;;;;;22.05;16.83;;;7.30;99.90;;;;;;4843141;29;89318;-32
2022/11/18 02:49:00;;;;;;;24.38;17.70;;;7.30;99.90;;;;;;4843445;29;89630;-32
2022/11/18 02:51:29;;;;;;;33.08;23.85;;;7.30;99.90;;;;;;4842696;29;90621;-31
2022/11/18 02:54:02;;;;;;;29.63;25.08;;;7.40;99.90;;;;;;4843233;29;91054;-32
2022/11/18 02:56:29;;;;;;;31.75;23.73;;;7.30;99.90;;;;;;4846453;29;89708;-32
2022/11/18 02:58:55;;;;;;;31.65;24.73;;;7.30;99.90;;;;;;4846685;29;89363;-31
2022/11/18 03:01:29;;;;;;;25.88;21.75;;;7.30;99.90;;;;;;4846332;29;88696;-32
2022/11/18 03:03:55;;;;;;;26.80;21.85;;;7.30;99.90;;;;;;4846835;29;89145;-31
2022/11/18 03:06:27;;;;;;;25.85;20.77;;;7.30;99.90;;;;;;4846094;29;89778;-35
2022/11/18 03:08:57;;;;;;;36.92;27.00;;;7.30;99.90;;;;;;4846744;29;89859;-33
2022/11/18 03:11:27;;;;;;;33.42;18.67;;;7.20;99.90;;;;;;4846054;29;87985;-31
2022/11/18 03:14:04;;;;;;;30.40;23.88;;;7.30;99.90;;;;;;4846506;29;90225;-30
2022/11/18 03:16:38;;;;;;;26.90;21.37;;;7.30;99.90;;;;;;4845897;29;90758;-33
2022/11/18 03:19:22;;;;;;;30.05;25.17;;;7.30;99.90;;;;;;4846861;29;90464;-34
2022/11/18 03:22:20;;;;;;;23.80;19.60;;;7.30;99.90;;;;;;4846531;29;88957;-31
2022/11/18 03:24:58;;;;;;;31.95;25.08;;;7.30;99.90;;;;;;4844550;29;90130;-31
2022/11/18 03:27:38;;;;;;;31.55;25.05;;;7.30;99.90;;;;;;4845828;29;91760;-33
2022/11/18 03:30:08;;;;;;;30.00;25.67;;;7.20;99.90;;;;;;4846287;29;90255;-32
2022/11/18 03:32:38;;;;;;;22.13;19.30;;;7.20;99.90;;;;;;4846041;29;89465;-32
2022/11/18 03:35:11;;;;;;;30.48;23.15;;;7.20;99.90;;;;;;4845955;29;90142;-32
2022/11/18 03:37:39;;;;;;;36.60;23.65;;;7.20;99.90;;;;;;4846234;29;90106;-32
2022/11/18 03:40:18;;;;;;;17.97;16.07;;;7.20;99.90;;;;;;4846203;29;90159;-34
2022/11/18 03:42:48;;;;;;;22.00;16.38;;;7.30;99.90;;;;;;4845784;29;89819;-31
2022/11/18 03:45:38;;;;;;;25.48;22.40;;;7.30;99.90;;;;;;4845725;29;91005;-34
2022/11/18 03:48:21;;;;;;;32.50;23.20;;;7.20;99.90;;;;;;4845857;29;89980;-34
2022/11/18 03:51:11;;;;;;;28.85;19.23;;;7.20;99.90;;;;;;4845637;29;91194;-31
2022/11/18 03:53:42;;;;;;;21.85;15.77;;;7.20;99.90;;;;;;4846157;29;89016;-32
2022/11/18 03:56:16;;;;;;;26.75;21.00;;;7.20;99.90;;;;;;4845992;29;90393;-35
2022/11/18 03:58:50;;;;;;;28.20;23.45;;;7.20;99.90;;;;;;4844560;29;89550;-32
2022/11/18 04:01:21;;;;;;;25.13;20.33;;;7.10;99.90;;;;;;4845928;29;89536;-33
2022/11/18 04:03:47;;;;;;;31.92;24.65;;;7.10;99.90;;;;;;4845950;29;89318;-32
2022/11/18 04:06:40;;;;;;;31.63;24.23;;;7.10;99.90;;;;;;4845225;29;90556;-34
2022/11/18 04:09:14;;;;;;;33.15;25.42;;;7.10;99.90;;;;;;4844773;29;90185;-32
2022/11/18 04:12:02;;;;;;;27.20;21.15;;;7.10;99.90;;;;;;4844752;29;90778;-32
2022/11/18 04:14:34;;;;;;;28.13;21.20;;;7.10;99.90;;;;;;4845563;29;90072;-32
2022/11/18 04:17:09;;;;;;;23.73;19.15;;;7.00;99.90;;;;;;4845771;29;90153;-33
2022/11/18 04:19:34;;;;;;;30.80;23.85;;;7.10;99.90;;;;;;4844782;29;89660;-32
2022/11/18 04:22:00;;;;;;;31.15;25.58;;;7.10;99.90;;;;;;4845467;29;89298;-33
2022/11/18 04:24:26;;;;;;;31.63;24.42;;;7.10;99.90;;;;;;4844775;29;89000;-33
2022/11/18 04:26:51;;;;;;;30.30;22.35;;;7.00;99.90;;;;;;4845515;29;89826;-34
2022/11/18 04:29:17;;;;;;;21.95;18.92;;;7.10;99.90;;;;;;4845295;29;90638;-31
2022/11/18 04:31:43;;;;;;;24.42;16.10;;;7.20;99.90;;;;;;4844861;29;89642;-34
2022/11/18 04:34:08;;;;;;;30.65;23.83;;;7.10;99.90;;;;;;4844730;29;90493;-31
2022/11/18 04:36:34;;;;;;;27.83;22.80;;;7.00;99.90;;;;;;4827463;29;90520;-32
2022/11/18 04:38:59;;;;;;;31.38;23.17;;;7.00;99.90;;;;;;4846037;29;90263;-34
2022/11/18 04:41:54;;;;;;;26.75;18.40;;;7.10;99.90;;;;;;4844301;29;89565;-34
2022/11/18 04:44:11;;;;;;;30.27;22.60;;;7.10;99.90;;;;;;4844530;29;88834;-33
2022/11/18 04:46:41;;;;;;;24.40;18.50;;;7.10;99.90;;;;;;4844955;29;89836;-30
2022/11/18 04:49:12;;;;;;;26.60;22.80;;;7.10;99.90;;;;;;4845047;29;89375;-31
2022/11/18 04:51:39;;;;;;;27.25;21.88;;;7.10;99.90;;;;;;4844865;29;89351;-34
2022/11/18 04:54:05;;;;;;;27.25;16.30;;;7.10;99.90;;;;;;4845722;29;89355;-32
2022/11/18 04:56:31;;;;;;;32.63;25.05;;;7.00;99.90;;;;;;4843787;29;90286;-33
2022/11/18 04:58:59;;;;;;;29.63;22.25;;;7.10;99.90;;;;;;4844415;29;90346;-31
2022/11/18 05:01:25;;;;;;;31.65;25.85;;;7.00;99.90;;;;;;4844316;29;90664;-34
2022/11/18 05:03:51;;;;;;;25.65;19.85;;;7.00;99.90;;;;;;4844198;29;90128;-31
2022/11/18 05:06:17;;;;;;;35.42;22.55;;;7.00;99.90;;;;;;4844999;29;90310;-32
2022/11/18 05:08:42;;;;;;;37.50;22.80;;;7.00;99.90;;;;;;4844372;29;89480;-32
2022/11/18 05:13:52;;;;;;;33.78;25.02;;;7.10;99.90;;;;;;4844408;29;88371;-30
2022/11/18 05:16:18;;;;;;;33.17;24.08;;;7.00;99.90;;;;;;4844412;29;90120;-31
2022/11/18 05:18:44;;;;;;;29.30;23.13;;;6.90;99.90;;;;;;4844207;29;89959;-33
2022/11/18 05:21:10;;;;;;;27.75;20.30;;;6.90;99.90;;;;;;4844331;29;89744;-32
2022/11/18 05:23:35;;;;;;;27.35;18.95;;;6.90;99.90;;;;;;4843952;29;89721;-31
2022/11/18 05:26:06;;;;;;;32.80;22.40;;;6.90;99.90;;;;;;4844499;29;90178;-34
2022/11/18 05:28:31;;;;;;;29.77;20.38;;;6.90;99.90;;;;;;4844609;29;90421;-31
2022/11/18 05:30:57;;;;;;;34.53;23.92;;;7.00;99.90;;;;;;4843619;29;89257;-33
2022/11/18 05:33:23;;;;;;;32.05;23.60;;;6.90;99.90;;;;;;4845020;29;89351;-31
2022/11/18 05:35:48;;;;;;;33.35;24.33;;;6.80;99.90;;;;;;4843868;29;91358;-33
2022/11/18 05:38:14;;;;;;;31.98;23.52;;;6.80;99.90;;;;;;4844375;29;90364;-33
2022/11/18 05:40:41;;;;;;;23.20;17.20;;;6.90;99.90;;;;;;4843742;29;90052;-31
2022/11/18 05:43:12;;;;;;;28.58;20.63;;;7.00;99.90;;;;;;4844273;29;88578;-31
2022/11/18 05:45:42;;;;;;;26.73;19.85;;;6.90;99.90;;;;;;4843640;29;90113;-31
2022/11/18 05:48:08;;;;;;;32.50;23.33;;;6.90;99.90;;;;;;4843681;29;90687;-30
2022/11/18 05:50:36;;;;;;;30.00;20.92;;;6.90;99.90;;;;;;4842889;29;90693;-34
2022/11/18 05:53:03;;;;;;;30.50;20.75;;;6.80;99.90;;;;;;4844064;29;89451;-34
2022/11/18 05:55:37;;;;;;;30.15;24.20;;;6.80;99.90;;;;;;4843993;29;89995;-32
2022/11/18 05:58:02;;;;;;;35.20;23.60;;;6.80;99.90;;;;;;4844286;29;90042;-35
2022/11/18 06:00:29;;;;;;;30.63;23.42;;;6.80;99.90;;;;;;4843662;29;89603;-30
2022/11/18 06:02:56;;;;;;;39.55;26.70;;;6.90;99.90;;;;;;4843516;29;90642;-33
2022/11/18 06:05:24;;;;;;;31.50;22.27;;;6.80;99.90;;;;;;4843346;29;90463;-34
2022/11/18 06:07:52;;;;;;;33.90;23.33;;;6.80;99.90;;;;;;4843996;29;89651;-34
2022/11/18 06:10:22;;;;;;;37.65;24.63;;;6.90;99.90;;;;;;4843855;29;89456;-35
2022/11/18 06:12:51;;;;;;;27.98;22.67;;;6.90;99.90;;;;;;4843210;29;90327;-31
2022/11/18 06:15:24;;;;;;;38.30;25.63;;;6.90;99.90;;;;;;4843304;29;90583;-34
2022/11/18 06:18:04;;;;;;;33.05;22.92;;;6.80;99.90;;;;;;4843997;29;90586;-35
2022/11/18 06:20:33;;;;;;;29.95;20.48;;;6.90;99.90;;;;;;4842950;29;89812;-32
2022/11/18 06:22:59;;;;;;;34.95;26.40;;;6.90;99.90;;;;;;4843654;29;89446;-32
2022/11/18 06:25:25;;;;;;;34.70;27.33;;;6.70;99.90;;;;;;4843071;29;90293;-33
2022/11/18 06:27:55;;;;;;;29.55;23.20;;;6.70;99.90;;;;;;4843163;29;89635;-31
2022/11/18 06:30:20;;;;;;;35.00;25.20;;;6.70;99.90;;;;;;4844710;29;89465;-33
2022/11/18 06:32:46;;;;;;;31.55;24.33;;;6.80;99.90;;;;;;4847077;29;90222;-32
2022/11/18 06:35:11;;;;;;;22.75;17.52;;;6.70;99.90;;;;;;4846717;29;90307;-31
2022/11/18 06:37:37;;;;;;;40.78;27.85;;;6.70;99.90;;;;;;4845836;29;90624;-32
2022/11/18 06:40:03;;;;;;;28.02;18.35;;;6.70;99.90;;;;;;4847084;29;90564;-31
2022/11/18 06:45:13;;;;;;;42.47;27.13;;;6.70;99.90;;;;;;4847186;29;90334;-34
2022/11/18 06:47:38;;;;;;;29.05;18.45;;;6.60;99.90;;;;;;4846018;29;90011;-31
2022/11/18 06:50:05;;;;;;;37.45;26.27;;;6.60;99.90;;;;;;4846315;29;89874;-35
2022/11/18 06:52:30;;;;;;;31.90;24.50;;;6.60;99.90;;;;;;4846727;29;88133;-32
2022/11/18 06:54:56;;;;;;;39.78;26.48;;;6.60;99.90;;;;;;4846294;29;90295;-32
2022/11/18 06:57:22;;;;;;;34.22;22.08;;;6.60;99.90;;;;;;4847206;29;90038;-33
2022/11/18 06:59:47;;;;;;;28.20;20.52;;;6.70;99.90;;;;;;4845872;29;89761;-34
2022/11/18 07:02:13;;;;;;;34.35;23.45;;;6.70;99.90;;;;;;4846411;29;88859;-34
2022/11/18 07:04:39;;;;;;;36.33;24.27;;;6.60;99.90;;;;;;4846493;29;92815;-33
2022/11/18 07:07:06;;;;;;;36.75;24.73;;;6.70;99.90;;;;;;4845966;29;89693;-34
2022/11/18 07:09:34;;;;;;;36.35;23.75;;;6.60;99.90;;;;;;4846598;29;88378;-32
2022/11/18 07:11:59;;;;;;;33.63;24.83;;;6.60;99.90;;;;;;4845926;29;88742;-31
2022/11/18 07:14:25;;;;;;;29.30;21.88;;;6.60;99.90;;;;;;4845182;28;90368;-34
2022/11/18 07:16:50;;;;;;;28.73;21.67;;;6.60;99.90;;;;;;4845544;28;89544;-32
2022/11/18 07:19:16;;;;;;;27.17;21.40;;;6.60;99.90;;;;;;4845491;29;89582;-34
2022/11/18 07:21:42;;;;;;;29.95;22.08;;;6.50;99.90;;;;;;4846819;29;88036;-32
2022/11/18 07:24:10;;;;;;;25.08;18.13;;;6.50;99.90;;;;;;4846243;29;90106;-31
2022/11/18 07:26:36;;;;;;;22.67;15.40;;;6.50;99.90;;;;;;4845069;29;91407;-32
2022/11/18 07:29:01;;;;;;;26.40;20.58;;;6.50;99.90;;;;;;4846197;29;91538;-33
2022/11/18 07:31:27;;;;;;;20.17;17.30;;;6.60;99.90;;;;;;4845578;28;89588;-30
2022/11/18 07:33:53;;;;;;;25.05;17.55;;;6.60;99.90;;;;;;4845413;28;90280;-32
2022/11/18 07:36:21;;;;;;;18.17;13.77;;;6.60;99.90;;;;;;4845652;28;89670;-31
2022/11/18 07:38:47;;;;;;;26.67;19.17;;;6.60;99.90;;;;;;4845243;28;89600;-33
2022/11/18 07:41:19;;;;;;;23.25;16.20;;;6.50;99.90;;;;;;4845131;28;89526;-33
2022/11/18 07:43:45;;;;;;;25.92;17.67;;;6.50;99.90;;;;;;4845624;29;90858;-34
2022/11/18 07:46:15;;;;;;;25.27;18.05;;;6.60;99.90;;;;;;4845574;28;89761;-35
2022/11/18 07:48:42;;;;;;;21.80;17.38;;;6.40;99.90;;;;;;4845370;29;89967;-30
2022/11/18 07:51:09;;;;;;;19.13;15.97;;;6.40;99.90;;;;;;4838214;29;88390;-32
2022/11/18 07:53:35;;;;;;;20.65;16.77;;;6.50;99.90;;;;;;4844784;28;90129;-33
2022/11/18 07:56:00;;;;;;;21.15;15.80;;;6.50;99.90;;;;;;4845435;28;90014;-33
2022/11/18 07:58:26;;;;;;;21.48;14.77;;;6.50;99.90;;;;;;4845637;29;89624;-32
2022/11/18 08:00:52;;;;;;;18.75;14.18;;;6.60;99.90;;;;;;4844809;29;89122;-31
2022/11/18 08:03:18;;;;;;;21.58;17.08;;;6.60;99.90;;;;;;4845936;29;90893;-35
2022/11/18 08:05:43;;;;;;;22.45;16.45;;;6.50;99.90;;;;;;4844990;29;88686;-31
2022/11/18 08:08:09;;;;;;;20.25;15.52;;;6.60;99.90;;;;;;4845849;29;90134;-36
2022/11/18 08:10:36;;;;;;;26.73;19.13;;;6.50;99.90;;;;;;4845680;29;88698;-32
2022/11/18 08:13:01;;;;;;;25.88;18.48;;;6.50;99.90;;;;;;4844462;29;89991;-33
2022/11/18 08:15:27;;;;;;;24.25;18.42;;;6.50;99.90;;;;;;4844538;29;90634;-31
2022/11/18 08:17:53;;;;;;;25.15;17.23;;;6.50;99.90;;;;;;4845073;29;90907;-31
2022/11/18 08:20:18;;;;;;;23.45;17.13;;;6.40;99.90;;;;;;4845720;29;89151;-33
2022/11/18 08:22:44;;;;;;;22.50;16.60;;;6.40;99.90;;;;;;4845424;29;90352;-32
2022/11/18 08:25:10;;;;;;;30.92;20.73;;;6.40;99.90;;;;;;4844361;29;89777;-33
2022/11/18 08:27:35;;;;;;;34.20;22.75;;;6.30;99.90;;;;;;4845022;29;89349;-32
2022/11/18 08:30:01;;;;;;;27.38;21.10;;;6.30;99.90;;;;;;4845161;29;89457;-35
2022/11/18 08:32:27;;;;;;;20.52;15.73;;;6.40;99.90;;;;;;4845236;29;90308;-35
2022/11/18 08:34:52;;;;;;;27.30;19.50;;;6.40;99.90;;;;;;4845163;29;91400;-35
2022/11/18 08:37:18;;;;;;;28.27;20.52;;;6.40;99.90;;;;;;4844994;29;90286;-33
2022/11/18 08:39:44;;;;;;;38.92;24.55;;;6.30;99.90;;;;;;4845192;29;89062;-32
2022/11/18 08:42:09;;;;;;;23.88;17.23;;;6.30;99.90;;;;;;4844731;29;90623;-32
2022/11/18 08:44:35;;;;;;;28.95;19.40;;;6.40;99.90;;;;;;4845501;29;89553;-32
2022/11/18 08:47:01;;;;;;;32.30;20.48;;;6.40;99.90;;;;;;4844979;29;88373;-34
2022/11/18 08:49:27;;;;;;;20.48;16.80;;;6.40;99.90;;;;;;4845023;29;89285;-32
2022/11/18 08:51:53;;;;;;;29.48;20.75;;;6.40;99.90;;;;;;4844507;29;91833;-35
2022/11/18 08:54:19;;;;;;;25.98;19.35;;;6.30;99.90;;;;;;4844198;29;89655;-33
2022/11/18 08:56:45;;;;;;;26.40;18.73;;;6.30;99.90;;;;;;4845560;29;89688;-32
2022/11/18 08:59:11;;;;;;;26.08;18.90;;;6.30;99.90;;;;;;4827619;29;88633;-35
2022/11/18 09:01:37;;;;;;;23.08;15.27;;;6.40;99.90;;;;;;4843648;29;90330;-34
2022/11/18 09:04:03;;;;;;;19.90;10.98;;;6.40;99.90;;;;;;4845033;29;90631;-31
2022/11/18 09:06:29;;;;;;;25.98;19.08;;;6.40;99.90;;;;;;4844139;29;89940;-34
2022/11/18 09:08:55;;;;;;;20.38;15.88;;;6.30;99.90;;;;;;4844833;29;89354;-35
2022/11/18 09:11:23;;;;;;;19.45;15.20;;;6.40;99.90;;;;;;4879665;23;90297;-34
2022/11/18 09:13:56;;;;;;;;;;;6.30;99.90;;;;;;4958886;28;90009;-34
2022/11/18 09:16:24;;;;;;;31.10;20.27;;;6.40;99.90;;;;;;4962481;28;88394;-32
2022/11/18 09:18:50;;;;;;;24.98;18.23;;;6.30;99.90;;;;;;4960288;28;87616;-34
2022/11/18 09:21:17;;;;;;;22.25;15.88;;;6.20;99.90;;;;;;4959268;28;89325;-33
2022/11/18 09:23:42;;;;;;;25.35;18.27;;;6.40;99.90;;;;;;4959528;28;90794;-31
2022/11/18 09:26:11;;;;;;;28.02;18.45;;;6.40;99.90;;;;;;4945685;28;90644;-35
2022/11/18 09:28:37;;;;;;;28.67;16.83;;;6.30;99.90;;;;;;4958916;28;90114;-31
2022/11/18 09:31:04;;;;;;;22.70;17.48;;;6.30;99.90;;;;;;4959708;28;91271;-33
2022/11/18 09:33:30;;;;;;;22.45;17.42;;;6.40;99.90;;;;;;4960025;28;89542;-32
2022/11/18 09:35:56;;;;;;;20.50;13.43;;;6.50;99.90;;;;;;4958663;28;89493;-33
2022/11/18 09:38:21;;;;;;;21.85;17.90;;;6.40;99.90;;;;;;4959800;28;88775;-33
2022/11/18 09:41:08;;;;;;;37.72;22.67;;;6.50;99.90;;;;;;4959274;28;90198;-33
2022/11/18 09:43:56;;;;;;;26.10;19.55;;;6.40;99.90;;;;;;4958987;28;89765;-31
2022/11/18 09:46:28;;;;;;;27.00;18.98;;;6.40;99.90;;;;;;4958609;28;89625;-34
2022/11/18 09:49:14;;;;;;;33.15;21.42;;;6.40;99.90;;;;;;4959147;28;88179;-32
2022/11/18 09:51:43;;;;;;;26.67;19.00;;;6.30;99.90;;;;;;4958299;28;90347;-33
2022/11/18 09:54:13;;;;;;;30.58;21.13;;;6.40;99.90;;;;;;4957931;28;90183;-35
2022/11/18 09:56:40;;;;;;;30.45;18.58;;;6.40;99.90;;;;;;4958323;28;91255;-33
2022/11/18 09:59:06;;;;;;;34.58;21.75;;;6.40;99.90;;;;;;4959707;28;88529;-35
2022/11/18 10:01:35;;;;;;;26.20;18.85;;;6.30;99.90;;;;;;4958665;28;90357;-35
2022/11/18 10:04:01;;;;;;;28.05;20.77;;;6.50;99.90;;;;;;4958103;28;90137;-33
2022/11/18 10:06:29;;;;;;;26.23;19.10;;;6.40;99.90;;;;;;4957962;28;90100;-34
2022/11/18 10:09:25;;;;;;;29.67;19.50;;;6.40;99.90;;;;;;4941770;28;89928;-32
2022/11/18 10:12:22;;;;;;;24.58;18.30;;;6.40;99.90;;;;;;4958503;28;90766;-32
2022/11/18 10:15:06;;;;;;;29.92;21.15;;;6.30;99.90;;;;;;4958720;28;90584;-32
2022/11/18 10:18:15;;;;;;;27.38;16.58;;;6.40;99.90;;;;;;4956823;28;89976;-32
2022/11/18 10:20:59;;;;;;;19.08;14.45;;;6.50;99.90;;;;;;4958088;28;88828;-35
2022/11/18 10:23:57;;;;;;;24.20;15.48;;;6.40;99.90;;;;;;4957937;28;89253;-35
2022/11/18 10:26:35;;;;;;;27.27;19.42;;;6.40;99.90;;;;;;4958523;28;89558;-38
2022/11/18 10:29:01;;;;;;;30.40;18.65;;;6.40;99.90;;;;;;4956595;28;89097;-33
2022/11/18 10:31:26;;;;;;;19.05;13.88;;;6.50;99.90;;;;;;4955601;28;88675;-37
2022/11/18 10:33:59;;;;;;;23.58;20.52;;;6.50;99.90;;;;;;4956171;28;89936;-35
2022/11/18 10:36:32;;;;;;;26.70;20.75;;;6.40;99.90;;;;;;4955349;28;89756;-33
2022/11/18 10:39:13;;;;;;;28.42;22.50;;;6.30;99.90;;;;;;4956688;28;89838;-34
2022/11/18 10:41:51;;;;;;;24.98;19.48;;;6.30;99.90;;;;;;4955964;28;90234;-32
2022/11/18 10:44:37;;;;;;;23.80;17.20;;;6.40;99.90;;;;;;4956623;28;90269;-33
2022/11/18 10:47:15;;;;;;;17.58;12.70;;;6.40;99.90;;;;;;4955444;28;90713;-35
2022/11/18 10:49:41;;;;;;;20.70;16.42;;;6.50;99.90;;;;;;4955297;28;92342;-35
2022/11/18 10:52:11;;;;;;;17.65;13.27;;;6.40;99.90;;;;;;4953055;28;90740;-33
2022/11/18 10:54:37;;;;;;;27.25;18.45;;;6.40;99.90;;;;;;4954516;28;90937;-35
2022/11/18 10:57:23;;;;;;;20.90;16.30;;;6.40;99.90;;;;;;4955618;28;89440;-33
2022/11/18 10:59:53;;;;;;;21.05;15.73;;;6.40;99.90;;;;;;4955297;28;90152;-33
2022/11/18 11:02:31;;;;;;;19.35;15.38;;;6.30;99.90;;;;;;4955003;28;90046;-31
2022/11/18 11:05:00;;;;;;;20.00;14.90;;;6.20;99.90;;;;;;4955501;28;88896;-32
2022/11/18 11:07:27;;;;;;;23.17;15.05;;;6.20;99.90;;;;;;4954259;28;89256;-34
2022/11/18 11:10:04;;;;;;;22.77;16.73;;;6.20;99.90;;;;;;4955406;28;89399;-33
2022/11/18 11:12:36;;;;;;;21.27;13.77;;;6.20;99.90;;;;;;4954639;28;89140;-32
2022/11/18 11:15:05;;;;;;;23.50;13.43;;;6.20;99.90;;;;;;4954824;28;90069;-34
2022/11/18 11:17:34;;;;;;;17.77;13.07;;;6.20;99.90;;;;;;4957528;28;90355;-33
2022/11/18 11:20:11;;;;;;;20.23;14.05;;;6.20;99.90;;;;;;4958127;28;89482;-35
2022/11/18 11:22:37;;;;;;;22.87;14.97;;;6.20;99.90;;;;;;4959010;28;90087;-36
2022/11/18 11:25:16;;;;;;;24.92;18.70;;;6.10;99.90;;;;;;4958271;28;90298;-34
2022/11/18 11:27:44;;;;;;;25.38;17.83;;;6.10;99.90;;;;;;4958042;28;89754;-32
2022/11/18 11:30:17;;;;;;;;;;;6.20;99.90;;;;;;4959213;28;89375;-32
2022/11/18 11:33:02;;;;;;;26.40;15.57;;;6.10;99.90;;;;;;4960430;28;88189;-32
2022/11/18 11:35:37;;;;;;;23.80;17.27;;;6.10;99.90;;;;;;4958168;28;89176;-32
2022/11/18 11:38:11;;;;;;;21.13;16.38;;;6.00;99.90;;;;;;4957956;28;89813;-32
2022/11/18 11:41:04;;;;;;;25.83;18.15;;;5.90;99.90;;;;;;4957852;28;90556;-35
2022/11/18 11:43:53;;;;;;;26.52;16.88;;;5.90;99.90;;;;;;4958633;28;89385;-33
2022/11/18 11:47:45;;;;;;;30.80;21.80;;;5.80;99.90;;;;;;4958901;28;88829;-33
2022/11/18 11:50:00;;;;;;;26.48;17.42;;;5.80;99.90;;;;;;4957601;28;90459;-33
2022/11/18 11:52:47;;;;;;;25.65;18.95;;;5.80;99.90;;;;;;4946333;28;90074;-35
2022/11/18 11:55:30;;;;;;;25.88;19.40;;;5.80;99.90;;;;;;4958291;28;89318;-34
2022/11/18 11:58:04;;;;;;;28.90;20.13;;;5.70;99.90;;;;;;4958379;28;90226;-34
2022/11/18 12:00:34;;;;;;;19.17;14.02;;;5.70;99.90;;;;;;4957587;28;89772;-32
2022/11/18 12:03:18;;;;;;;38.67;23.30;;;5.80;99.90;;;;;;4958364;28;89941;-31
2022/11/18 12:05:44;;;;;;;18.15;16.05;;;5.70;99.90;;;;;;4944162;28;89760;-31
2022/11/18 12:08:19;;;;;;;23.77;14.68;;;5.70;99.90;;;;;;4958048;28;91023;-32
2022/11/18 12:10:47;;;;;;;23.40;17.17;;;5.70;99.90;;;;;;4957598;28;91519;-32
2022/11/18 12:13:31;;;;;;;30.42;18.85;;;5.60;99.90;;;;;;4957692;28;90558;-31
2022/11/18 12:16:05;;;;;;;27.33;18.35;;;5.50;99.90;;;;;;4944593;28;88912;-33
2022/11/18 12:18:55;;;;;;;24.52;15.70;;;5.60;99.90;;;;;;4958028;28;89650;-34
2022/11/18 12:21:46;;;;;;;30.00;19.98;;;5.60;99.90;;;;;;4947254;28;89240;-34
2022/11/18 12:24:33;;;;;;;25.55;18.17;;;5.50;99.90;;;;;;4958269;28;89105;-32
2022/11/18 12:27:11;;;;;;;24.67;17.30;;;5.60;99.90;;;;;;4957728;28;88225;-33
2022/11/18 12:29:49;;;;;;;26.88;17.88;;;5.50;99.90;;;;;;4957169;28;89732;-35
2022/11/18 12:32:30;;;;;;;23.55;17.15;;;5.50;99.90;;;;;;4957233;28;91069;-33
2022/11/18 12:35:12;;;;;;;21.42;13.95;;;5.50;99.90;;;;;;4957657;28;90403;-32
2022/11/18 12:37:52;;;;;;;22.55;13.55;;;5.50;99.90;;;;;;4957108;28;89120;-36
2022/11/18 12:40:30;;;;;;;23.42;18.42;;;5.50;99.90;;;;;;4944184;28;90156;-30
2022/11/18 12:45:39;;;;;;;32.17;21.38;;;5.50;99.90;;;;;;4957779;28;89289;-31
2022/11/18 12:48:23;;;;;;;28.92;18.77;;;5.30;99.90;;;;;;4957156;28;90022;-34
2022/11/18 12:50:51;;;;;;;24.73;16.77;;;5.30;99.90;;;;;;4957348;28;90152;-34
2022/11/18 12:53:29;;;;;;;23.73;17.70;;;5.30;99.90;;;;;;4956696;28;89638;-33
2022/11/18 12:55:56;;;;;;;26.20;17.73;;;5.30;99.90;;;;;;4956203;28;89236;-35
2022/11/18 12:58:23;;;;;;;27.30;20.75;;;5.30;99.90;;;;;;4955746;28;88971;-35
2022/11/18 13:00:52;;;;;;;36.40;23.77;;;5.20;99.90;;;;;;4956553;28;90487;-34
2022/11/18 13:03:25;;;;;;;31.20;19.90;;;5.20;99.90;;;;;;4957206;28;89131;-33
2022/11/18 13:06:00;;;;;;;26.10;18.73;;;5.30;99.90;;;;;;4957456;28;88752;-32
2022/11/18 13:08:27;;;;;;;25.50;18.17;;;5.30;99.90;;;;;;4957296;28;89467;-33
2022/11/18 13:13:41;;;;;;;25.77;19.45;;;5.20;99.90;;;;;;4956280;28;89959;-33
2022/11/18 13:19:07;;;;;;;34.17;19.42;;;5.10;99.90;;;;;;4956680;28;87633;-30